Time;durP1;ratioP1;P1;durP2;ratioP2;P2;SDS_P1;SDS_P2;PMS_P1;PMS_P2;Temp;Humidity;BMP_temperature;BMP_pressure;BME280_temperature;BME280_humidity;BME280_pressure;Samples;Min_cycle;Max_cycle;Signal;HPM_P1;HPM_P2
2022/08/01 00:00:31;;;;;;;5.88;5.18;;;18.50;99.90;;;;;;5041577;28;20050;-50
2022/08/01 00:02:57;;;;;;;5.32;4.68;;;18.60;99.90;;;;;;5039874;28;20068;-51
2022/08/01 00:05:22;;;;;;;6.50;5.13;;;18.50;99.90;;;;;;5036040;28;20076;-50
2022/08/01 00:07:48;;;;;;;5.68;5.18;;;18.60;99.90;;;;;;5038492;28;20046;-52
2022/08/01 00:10:16;;;;;;;5.93;5.40;;;18.60;99.90;;;;;;5032370;28;20485;-53
2022/08/01 00:12:42;;;;;;;7.22;5.45;;;18.60;99.90;;;;;;5036759;28;20045;-48
2022/08/01 00:15:10;;;;;;;6.82;6.15;;;18.60;99.90;;;;;;5037634;28;20045;-54
2022/08/01 00:17:35;;;;;;;7.35;5.57;;;18.60;99.90;;;;;;5035293;28;20048;-51
2022/08/01 00:20:03;;;;;;;6.85;6.13;;;18.60;99.90;;;;;;5033066;28;20042;-51
2022/08/01 00:22:31;;;;;;;6.55;5.68;;;18.60;99.90;;;;;;5036359;28;20094;-51
2022/08/01 00:24:56;;;;;;;8.02;5.88;;;18.60;99.90;;;;;;5037293;28;20108;-51
2022/08/01 00:27:22;;;;;;;8.05;6.05;;;18.60;99.90;;;;;;5040235;28;20405;-50
2022/08/01 00:29:47;;;;;;;8.20;6.60;;;18.50;99.90;;;;;;5037967;28;20136;-50
2022/08/01 00:32:13;;;;;;;8.55;6.50;;;18.50;99.90;;;;;;5039430;28;20040;-49
2022/08/01 00:34:39;;;;;;;7.43;6.55;;;18.50;99.90;;;;;;5036928;28;20492;-51
2022/08/01 00:37:04;;;;;;;7.28;6.07;;;18.50;99.90;;;;;;5040713;28;20151;-49
2022/08/01 00:39:32;;;;;;;7.15;6.45;;;18.50;99.90;;;;;;5038762;28;20087;-52
2022/08/01 00:41:58;;;;;;;;;;;18.50;99.90;;;;;;5042818;28;20548;-52
2022/08/01 00:44:24;;;;;;;8.07;7.27;;;18.40;99.90;;;;;;5040100;28;19921;-51
2022/08/01 00:46:50;;;;;;;10.75;7.03;;;18.50;99.90;;;;;;5043698;28;20053;-52
2022/08/01 00:49:16;;;;;;;9.30;6.68;;;18.40;99.90;;;;;;5030407;28;20041;-48
2022/08/01 00:51:43;;;;;;;7.53;6.70;;;18.40;99.90;;;;;;5018296;28;20508;-50
2022/08/01 00:54:09;;;;;;;8.43;7.10;;;18.40;99.90;;;;;;5037751;28;20065;-51
2022/08/01 00:56:34;;;;;;;9.10;7.15;;;18.40;99.90;;;;;;5032348;28;20155;-50
2022/08/01 00:59:00;;;;;;;8.63;7.60;;;18.40;99.90;;;;;;5021224;28;20040;-49
2022/08/01 01:01:26;;;;;;;8.20;7.32;;;18.40;99.90;;;;;;5043490;28;20037;-50
2022/08/01 01:03:52;;;;;;;8.80;6.88;;;18.40;99.90;;;;;;5037871;28;20119;-49
2022/08/01 01:06:55;;;;;;;9.15;7.00;;;18.40;99.90;;;;;;5015592;28;20424;-52
2022/08/01 01:09:42;;;;;;;8.55;7.32;;;18.40;99.90;;;;;;5035898;28;21207;-48
2022/08/01 01:12:45;;;;;;;10.93;7.72;;;18.40;99.90;;;;;;5038419;28;20042;-52
2022/08/01 01:15:30;;;;;;;9.13;7.07;;;18.40;99.90;;;;;;5041059;28;20037;-49
2022/08/01 01:18:08;;;;;;;8.40;7.47;;;18.40;99.90;;;;;;5038800;28;20041;-53
2022/08/01 01:20:43;;;;;;;8.10;7.30;;;18.40;99.90;;;;;;5036033;28;20041;-53
2022/08/01 01:23:26;;;;;;;9.77;7.65;;;18.30;99.90;;;;;;5040413;28;20080;-49
2022/08/01 01:26:13;;;;;;;10.20;7.70;;;18.30;99.90;;;;;;5037131;28;20147;-51
2022/08/01 01:29:04;;;;;;;8.35;7.53;;;18.30;99.90;;;;;;5039794;28;20550;-49
2022/08/01 01:31:35;;;;;;;8.40;7.22;;;18.30;99.90;;;;;;5045495;28;20106;-51
2022/08/01 01:34:04;;;;;;;7.95;7.15;;;18.30;99.90;;;;;;5035750;28;20048;-48
2022/08/01 01:36:32;;;;;;;8.70;6.68;;;18.30;99.90;;;;;;5038310;28;20120;-50
2022/08/01 01:39:00;;;;;;;9.50;7.15;;;18.30;99.90;;;;;;5024122;28;20441;-51
2022/08/01 01:41:26;;;;;;;9.25;7.00;;;18.30;99.90;;;;;;5038656;28;20057;-48
2022/08/01 01:43:53;;;;;;;9.13;6.23;;;18.30;99.90;;;;;;5037894;28;20041;-49
2022/08/01 01:46:23;;;;;;;8.60;6.95;;;18.30;99.90;;;;;;5035861;28;20041;-51
2022/08/01 01:48:50;;;;;;;7.45;6.70;;;18.30;99.90;;;;;;5034079;28;20499;-49
2022/08/01 01:51:16;;;;;;;7.95;6.60;;;18.20;99.90;;;;;;5018807;28;20564;-49
2022/08/01 01:53:44;;;;;;;8.77;6.97;;;18.20;99.90;;;;;;5035227;28;20042;-50
2022/08/01 01:56:14;;;;;;;7.80;6.18;;;18.20;99.90;;;;;;5032728;28;20120;-53
2022/08/01 01:58:42;;;;;;;10.35;7.05;;;18.20;99.90;;;;;;5032654;28;20561;-50
2022/08/01 02:01:08;;;;;;;7.25;6.43;;;18.20;99.90;;;;;;5038943;28;20037;-50
2022/08/01 02:03:36;;;;;;;7.15;6.32;;;18.20;99.90;;;;;;5042964;28;20751;-49
2022/08/01 02:06:03;;;;;;;8.23;6.85;;;18.20;99.90;;;;;;5016561;28;20078;-50
2022/08/01 02:08:32;;;;;;;9.35;7.30;;;18.20;99.90;;;;;;5036698;28;20033;-50
2022/08/01 02:11:17;;;;;;;7.95;6.72;;;18.20;99.90;;;;;;5035064;28;20060;-49
2022/08/01 02:13:47;;;;;;;8.52;7.55;;;18.20;99.90;;;;;;5036018;28;20044;-50
2022/08/01 02:16:15;;;;;;;9.82;8.02;;;18.20;99.90;;;;;;5035667;28;20076;-50
2022/08/01 02:18:41;;;;;;;10.20;7.57;;;18.20;99.90;;;;;;5035675;28;20049;-49
2022/08/01 02:21:11;;;;;;;8.43;6.95;;;18.20;99.90;;;;;;5036125;28;20041;-48
2022/08/01 02:23:40;;;;;;;8.30;6.72;;;18.10;99.90;;;;;;5036033;28;20430;-48
2022/08/01 02:26:14;;;;;;;7.18;6.38;;;18.10;99.90;;;;;;5037333;28;20045;-50
2022/08/01 02:28:59;;;;;;;8.48;6.82;;;18.10;99.90;;;;;;5035203;28;20507;-49
2022/08/01 02:31:26;;;;;;;7.40;6.68;;;18.20;99.90;;;;;;5037646;28;20412;-52
2022/08/01 02:33:56;;;;;;;;;;;18.20;99.90;;;;;;5040544;28;20041;-52
2022/08/01 02:36:26;;;;;;;7.50;6.82;;;18.10;99.90;;;;;;5037786;28;20396;-48
2022/08/01 02:38:53;;;;;;;10.00;7.43;;;18.20;99.90;;;;;;5037331;28;20045;-52
2022/08/01 02:41:21;;;;;;;8.02;7.00;;;18.20;99.90;;;;;;5052628;23;20474;-50
2022/08/01 02:43:51;;;;;;;8.70;6.63;;;18.10;99.90;;;;;;5019579;28;20033;-50
2022/08/01 02:46:34;;;;;;;8.18;6.80;;;18.20;99.90;;;;;;5039773;28;20041;-50
2022/08/01 02:49:04;;;;;;;7.90;6.30;;;18.10;99.90;;;;;;5022766;28;20087;-52
2022/08/01 02:51:31;;;;;;;6.93;6.05;;;18.10;99.90;;;;;;5033161;28;20044;-49
2022/08/01 02:53:58;;;;;;;6.77;6.13;;;18.10;99.90;;;;;;5042735;28;20040;-51
2022/08/01 02:56:34;;;;;;;7.05;6.05;;;18.10;99.90;;;;;;5032185;28;20106;-50
2022/08/01 02:59:09;;;;;;;8.23;6.53;;;18.20;99.90;;;;;;5036287;28;20057;-50
2022/08/01 03:01:36;;;;;;;8.32;5.88;;;18.10;99.90;;;;;;5023985;28;20493;-50
2022/08/01 03:04:04;;;;;;;6.70;6.10;;;18.10;99.90;;;;;;5032947;28;20045;-54
2022/08/01 03:06:32;;;;;;;7.82;6.20;;;18.10;99.90;;;;;;5031317;28;20071;-50
2022/08/01 03:08:59;;;;;;;;;;;18.10;99.90;;;;;;5038298;28;20063;-49
2022/08/01 03:11:26;;;;;;;8.55;5.70;;;18.10;99.90;;;;;;5039607;28;19928;-52
2022/08/01 03:13:55;;;;;;;6.63;5.27;;;18.00;99.90;;;;;;5037851;28;20098;-51
2022/08/01 03:16:23;;;;;;;5.47;4.97;;;18.00;99.90;;;;;;5021039;28;20045;-50
2022/08/01 03:18:50;;;;;;;5.32;3.85;;;18.00;99.90;;;;;;5040420;28;20052;-49
2022/08/01 03:21:19;;;;;;;5.15;3.72;;;17.90;99.90;;;;;;5015253;28;20064;-52
2022/08/01 03:23:45;;;;;;;3.53;2.95;;;18.00;99.90;;;;;;5036566;28;20123;-51
2022/08/01 03:26:11;;;;;;;4.73;3.40;;;17.80;99.90;;;;;;5031319;28;20045;-50
2022/08/01 03:28:40;;;;;;;3.53;2.97;;;17.80;99.90;;;;;;5036019;28;20427;-49
2022/08/01 03:31:05;;;;;;;4.00;3.10;;;17.90;99.90;;;;;;5037228;28;20080;-51
2022/08/01 03:33:31;;;;;;;3.65;3.00;;;17.80;99.90;;;;;;5036764;28;20046;-50
2022/08/01 03:36:01;;;;;;;3.92;3.20;;;17.80;99.90;;;;;;5035682;28;20071;-49
2022/08/01 03:38:32;;;;;;;4.55;2.90;;;17.70;99.90;;;;;;5042651;28;20408;-49
2022/08/01 03:41:15;;;;;;;3.45;3.15;;;17.80;99.90;;;;;;5039360;28;20477;-49
2022/08/01 03:43:47;;;;;;;4.40;2.92;;;17.80;99.90;;;;;;5037263;28;20602;-49
2022/08/01 03:46:33;;;;;;;3.90;3.25;;;17.80;99.90;;;;;;5036568;28;20052;-49
2022/08/01 03:49:03;;;;;;;3.67;2.88;;;17.70;99.90;;;;;;5029828;28;20773;-50
2022/08/01 03:51:30;;;;;;;4.65;3.00;;;17.70;99.90;;;;;;5038762;28;20040;-50
2022/08/01 03:53:59;;;;;;;4.65;3.60;;;17.70;99.90;;;;;;5033324;28;20037;-50
2022/08/01 03:56:25;;;;;;;4.55;3.30;;;17.80;99.90;;;;;;5035316;28;20056;-54
2022/08/01 03:58:52;;;;;;;4.22;3.83;;;17.70;99.90;;;;;;5031499;28;20053;-51
2022/08/01 04:01:18;;;;;;;3.75;3.35;;;17.80;99.90;;;;;;5039652;28;20049;-50
2022/08/01 04:03:44;;;;;;;3.22;2.92;;;17.70;99.90;;;;;;5034182;28;20464;-50
2022/08/01 04:06:10;;;;;;;4.35;3.22;;;17.70;99.90;;;;;;5028138;28;20052;-50
2022/08/01 04:08:38;;;;;;;3.70;2.80;;;17.60;99.90;;;;;;5034533;28;20030;-49
2022/08/01 04:11:03;;;;;;;3.78;3.25;;;17.60;99.90;;;;;;5032530;28;20049;-50
2022/08/01 04:13:30;;;;;;;4.13;2.80;;;17.70;99.90;;;;;;5034842;28;20401;-51
2022/08/01 04:15:56;;;;;;;3.17;2.63;;;17.70;99.90;;;;;;5034564;28;20477;-49
2022/08/01 04:18:22;;;;;;;3.05;2.80;;;17.70;99.90;;;;;;5036750;28;20042;-49
2022/08/01 04:20:47;;;;;;;3.15;2.20;;;17.70;99.90;;;;;;5032584;28;20389;-49
2022/08/01 04:23:20;;;;;;;2.50;2.30;;;17.70;99.90;;;;;;5034827;28;20040;-49
2022/08/01 04:25:47;;;;;;;5.20;2.40;;;17.70;99.90;;;;;;5032082;28;20041;-48
2022/08/01 04:28:16;;;;;;;2.60;2.33;;;17.70;99.90;;;;;;5029672;28;20440;-51
2022/08/01 04:30:44;;;;;;;5.35;2.30;;;17.70;99.90;;;;;;5034197;28;20445;-51
2022/08/01 04:33:13;;;;;;;3.58;2.22;;;17.70;99.90;;;;;;5030997;28;20116;-49
2022/08/01 04:35:40;;;;;;;4.60;2.13;;;17.70;99.90;;;;;;5031640;28;20050;-48
2022/08/01 04:38:08;;;;;;;5.20;2.20;;;17.70;99.90;;;;;;5016945;28;20057;-51
2022/08/01 04:40:36;;;;;;;5.07;1.60;;;17.70;99.90;;;;;;5032741;28;20124;-50
2022/08/01 04:43:02;;;;;;;6.43;2.22;;;17.70;99.90;;;;;;5035314;28;20098;-48
2022/08/01 04:45:28;;;;;;;4.70;2.08;;;17.70;99.90;;;;;;5037246;28;20079;-49
2022/08/01 04:47:54;;;;;;;6.30;2.08;;;17.70;99.90;;;;;;5035831;28;20052;-50
2022/08/01 04:50:21;;;;;;;3.10;1.60;;;17.70;99.90;;;;;;5035182;28;20038;-49
2022/08/01 04:52:47;;;;;;;5.20;2.13;;;17.60;99.90;;;;;;5032887;28;20684;-48
2022/08/01 04:55:13;;;;;;;3.97;1.90;;;17.60;99.90;;;;;;5025622;28;20033;-49
2022/08/01 04:57:43;;;;;;;4.40;2.03;;;17.60;99.90;;;;;;5038408;28;20467;-52
2022/08/01 05:00:10;;;;;;;4.65;1.70;;;17.60;99.90;;;;;;5032524;28;20116;-49
2022/08/01 05:02:36;;;;;;;4.07;1.87;;;17.60;99.90;;;;;;5034076;28;20041;-49
2022/08/01 05:05:02;;;;;;;4.30;1.73;;;17.70;99.90;;;;;;5030950;28;20425;-52
2022/08/01 05:07:28;;;;;;;2.35;1.90;;;17.70;99.90;;;;;;5031792;28;20042;-49
2022/08/01 05:09:54;;;;;;;5.00;2.00;;;17.70;99.90;;;;;;5027985;28;20046;-48
2022/08/01 05:12:20;;;;;;;4.20;1.92;;;17.70;99.90;;;;;;5037847;28;20040;-49
2022/08/01 05:14:46;;;;;;;5.18;2.20;;;17.70;99.90;;;;;;5032673;28;20090;-48
2022/08/01 05:17:11;;;;;;;3.83;2.05;;;17.70;99.90;;;;;;5029351;28;20033;-53
2022/08/01 05:19:39;;;;;;;3.63;2.10;;;17.80;99.90;;;;;;5037316;28;20219;-49
2022/08/01 05:22:07;;;;;;;7.57;2.20;;;17.70;99.90;;;;;;5031238;28;20350;-52
2022/08/01 05:24:34;;;;;;;6.78;2.10;;;17.70;99.90;;;;;;5033018;28;20389;-50
2022/08/01 05:27:00;;;;;;;2.65;1.85;;;17.70;99.90;;;;;;5030268;28;20034;-50
2022/08/01 05:29:26;;;;;;;7.05;2.45;;;17.80;99.90;;;;;;5033364;28;20124;-50
2022/08/01 05:31:53;;;;;;;4.05;2.00;;;17.80;99.90;;;;;;5015065;28;20489;-52
2022/08/01 05:34:19;;;;;;;4.60;2.03;;;17.80;99.90;;;;;;5031437;28;20159;-52
2022/08/01 05:36:45;;;;;;;4.15;2.13;;;17.80;99.90;;;;;;5032094;28;20073;-50
2022/08/01 05:39:11;;;;;;;6.70;2.53;;;17.90;99.90;;;;;;5014689;28;20033;-50
2022/08/01 05:41:37;;;;;;;7.28;2.55;;;17.90;99.90;;;;;;5026651;28;20056;-48
2022/08/01 05:44:03;;;;;;;5.78;2.30;;;18.00;99.90;;;;;;5034330;28;20532;-52
2022/08/01 05:46:30;;;;;;;5.10;2.03;;;18.00;99.90;;;;;;5032726;28;20489;-49
2022/08/01 05:49:03;;;;;;;6.55;2.22;;;18.00;99.90;;;;;;5031527;28;20378;-48
2022/08/01 05:51:29;;;;;;;6.78;2.15;;;18.00;99.90;;;;;;5028775;28;20733;-51
2022/08/01 05:53:55;;;;;;;4.25;2.10;;;18.00;99.90;;;;;;5032782;28;20040;-48
2022/08/01 05:56:21;;;;;;;4.57;2.10;;;17.90;99.90;;;;;;5017540;28;20073;-48
2022/08/01 05:58:47;;;;;;;5.10;2.20;;;17.90;99.90;;;;;;5036639;28;20041;-48
2022/08/01 06:01:13;;;;;;;5.82;2.35;;;17.90;99.90;;;;;;5033746;28;20049;-49
2022/08/01 06:03:39;;;;;;;8.32;2.63;;;17.90;99.90;;;;;;5029793;28;20044;-52
2022/08/01 06:06:04;;;;;;;5.93;2.42;;;17.70;99.90;;;;;;5020216;28;20078;-49
2022/08/01 06:08:31;;;;;;;6.22;2.60;;;17.60;99.90;;;;;;5035129;28;20041;-49
2022/08/01 06:10:57;;;;;;;5.55;2.20;;;17.50;99.90;;;;;;5032095;28;20091;-49
2022/08/01 06:13:23;;;;;;;8.07;2.50;;;17.50;99.90;;;;;;5011004;28;20045;-49
2022/08/01 06:15:49;;;;;;;5.70;2.40;;;17.50;99.90;;;;;;5035828;28;20041;-50
2022/08/01 06:18:15;;;;;;;7.38;2.50;;;17.50;99.90;;;;;;5033549;28;20496;-48
2022/08/01 06:20:41;;;;;;;7.95;2.70;;;17.50;99.90;;;;;;5031928;28;20048;-49
2022/08/01 06:23:07;;;;;;;6.80;2.25;;;17.50;99.90;;;;;;5033185;28;20091;-53
2022/08/01 06:25:33;;;;;;;6.80;2.28;;;17.50;99.90;;;;;;5034366;28;20447;-48
2022/08/01 06:27:59;;;;;;;8.88;2.70;;;17.50;99.90;;;;;;5031464;28;20115;-48
2022/08/01 06:30:25;;;;;;;8.27;2.60;;;17.80;99.90;;;;;;5036895;28;20041;-49
2022/08/01 06:32:51;;;;;;;9.93;2.55;;;17.80;99.90;;;;;;5030569;28;20694;-48
2022/08/01 06:35:17;;;;;;;9.48;3.17;;;18.30;99.90;;;;;;5015921;28;20033;-49
2022/08/01 06:37:44;;;;;;;9.45;2.33;;;18.80;99.90;;;;;;5033477;28;20071;-49
2022/08/01 06:40:11;;;;;;;11.57;2.65;;;19.10;99.90;;;;;;5034297;28;20065;-48
2022/08/01 06:42:37;;;;;;;11.88;2.92;;;19.30;99.90;;;;;;5033359;28;20306;-52
2022/08/01 06:45:09;;;;;;;9.48;2.72;;;19.30;99.90;;;;;;5036484;28;20041;-52
2022/08/01 06:47:35;;;;;;;9.32;2.47;;;19.20;99.90;;;;;;5031604;28;20457;-49
2022/08/01 06:50:01;;;;;;;10.30;2.60;;;19.10;99.90;;;;;;5026970;28;20052;-53
2022/08/01 06:52:26;;;;;;;10.10;2.25;;;19.10;99.90;;;;;;5037596;28;20404;-51
2022/08/01 06:54:52;;;;;;;11.93;2.60;;;19.00;99.90;;;;;;5041948;28;20048;-51
2022/08/01 06:57:17;;;;;;;10.48;2.20;;;18.70;99.90;;;;;;5035196;28;20395;-51
2022/08/01 06:59:43;;;;;;;11.57;2.55;;;18.60;99.90;;;;;;5042938;28;20045;-48
2022/08/01 07:02:09;;;;;;;11.90;2.58;;;18.60;99.90;;;;;;5031317;28;20118;-50
2022/08/01 07:04:35;;;;;;;12.18;3.30;;;18.50;99.90;;;;;;5038469;28;20044;-50
2022/08/01 07:07:00;;;;;;;8.38;2.30;;;18.60;99.90;;;;;;5007869;28;20068;-47
2022/08/01 07:09:26;;;;;;;15.70;3.30;;;18.50;99.90;;;;;;5028586;28;20037;-48
2022/08/01 07:11:53;;;;;;;10.93;2.53;;;18.50;99.90;;;;;;5025324;28;20041;-51
2022/08/01 07:14:19;;;;;;;12.77;3.20;;;18.50;99.90;;;;;;5041302;28;20049;-49
2022/08/01 07:16:45;;;;;;;12.77;2.47;;;18.70;99.90;;;;;;5045373;28;20292;-48
2022/08/01 07:19:11;;;;;;;9.50;2.42;;;18.70;99.90;;;;;;5050020;28;20052;-47
2022/08/01 07:21:37;;;;;;;9.88;2.42;;;18.80;99.90;;;;;;5036074;28;20087;-50
2022/08/01 07:24:03;;;;;;;9.65;2.47;;;18.80;99.90;;;;;;5041470;28;20107;-51
2022/08/01 07:26:28;;;;;;;13.43;2.80;;;18.80;99.90;;;;;;5043980;28;20041;-62
2022/08/01 07:28:54;;;;;;;12.27;2.85;;;19.00;99.90;;;;;;5048647;28;20044;-47
2022/08/01 07:31:19;;;;;;;10.45;3.10;;;19.00;99.90;;;;;;5031451;28;20521;-47
2022/08/01 07:33:45;;;;;;;11.63;2.55;;;19.10;99.90;;;;;;5049721;28;20045;-48
2022/08/01 07:36:11;;;;;;;11.38;2.92;;;19.10;99.90;;;;;;5041431;28;20423;-48
2022/08/01 07:38:37;;;;;;;11.25;2.72;;;19.10;99.90;;;;;;5023236;28;20048;-48
2022/08/01 07:41:02;;;;;;;9.90;2.50;;;19.40;99.90;;;;;;5048920;28;20057;-49
2022/08/01 07:43:29;;;;;;;11.82;2.67;;;19.30;99.90;;;;;;5052114;28;20052;-49
2022/08/01 07:45:54;;;;;;;10.85;2.63;;;19.40;99.90;;;;;;5047784;28;20045;-50
2022/08/01 07:48:23;;;;;;;11.88;3.50;;;19.50;99.90;;;;;;5025691;28;20064;-52
2022/08/01 07:50:50;;;;;;;12.43;2.92;;;19.70;99.90;;;;;;5043831;28;20052;-51
2022/08/01 07:53:15;;;;;;;9.50;2.10;;;19.60;99.90;;;;;;5029568;28;20045;-48
2022/08/01 07:55:41;;;;;;;9.40;2.50;;;19.60;99.90;;;;;;5044286;28;20048;-51
2022/08/01 07:58:07;;;;;;;10.60;2.60;;;19.50;99.90;;;;;;5041606;28;20415;-49
2022/08/01 08:00:33;;;;;;;11.18;2.58;;;19.50;99.90;;;;;;5048614;28;20595;-47
2022/08/01 08:02:59;;;;;;;9.23;2.80;;;19.30;99.90;;;;;;5033352;28;20555;-48
2022/08/01 08:05:28;;;;;;;10.35;2.55;;;19.30;99.90;;;;;;5048273;28;20045;-48
2022/08/01 08:07:54;;;;;;;12.23;2.90;;;19.30;99.90;;;;;;5052933;28;20045;-50
2022/08/01 08:10:19;;;;;;;11.52;2.72;;;19.30;99.90;;;;;;5048451;28;20091;-48
2022/08/01 08:12:46;;;;;;;13.13;3.13;;;19.50;99.90;;;;;;5040701;28;20076;-47
2022/08/01 08:15:12;;;;;;;14.65;3.10;;;19.50;99.90;;;;;;5042619;28;20147;-51
2022/08/01 08:17:39;;;;;;;14.35;3.13;;;19.40;99.90;;;;;;5040034;28;20037;-48
2022/08/01 08:20:08;;;;;;;11.02;2.90;;;19.40;99.90;;;;;;5040159;28;20040;-48
2022/08/01 08:22:34;;;;;;;9.93;2.65;;;19.70;99.90;;;;;;5015604;28;20064;-50
2022/08/01 08:25:00;;;;;;;10.60;3.08;;;19.60;99.90;;;;;;5043229;28;20038;-52
2022/08/01 08:27:25;;;;;;;12.13;2.67;;;19.50;99.90;;;;;;5041554;28;20028;-48
2022/08/01 08:29:51;;;;;;;12.48;3.40;;;19.60;99.90;;;;;;5047756;28;20403;-47
2022/08/01 08:32:17;;;;;;;14.27;2.90;;;19.50;99.90;;;;;;5041604;28;20033;-51
2022/08/01 08:34:43;;;;;;;11.57;2.70;;;19.70;99.90;;;;;;5052221;28;20079;-48
2022/08/01 08:37:09;;;;;;;11.60;2.63;;;19.70;99.90;;;;;;5040851;28;20053;-48
2022/08/01 08:39:34;;;;;;;12.10;2.88;;;19.70;99.90;;;;;;5023784;28;20041;-49
2022/08/01 08:42:01;;;;;;;11.13;3.08;;;19.90;99.90;;;;;;5033439;28;20567;-48
2022/08/01 08:44:27;;;;;;;13.13;2.90;;;20.20;99.90;;;;;;5039699;28;20041;-49
2022/08/01 08:46:55;;;;;;;12.82;2.90;;;20.30;99.90;;;;;;5040416;28;20172;-47
2022/08/01 08:49:27;;;;;;;10.35;2.45;;;20.60;99.90;;;;;;5027301;28;20070;-49
2022/08/01 08:51:58;;;;;;;14.05;2.90;;;20.30;99.90;;;;;;5038203;28;20043;-48
2022/08/01 08:54:24;;;;;;;8.57;2.28;;;20.40;99.90;;;;;;5024907;28;20052;-47
2022/08/01 08:56:52;;;;;;;12.48;2.75;;;20.70;99.90;;;;;;5040619;28;20511;-48
2022/08/01 08:59:18;;;;;;;13.38;2.88;;;20.70;99.90;;;;;;5038893;28;20037;-47
2022/08/01 09:01:44;;;;;;;11.05;2.30;;;20.90;99.90;;;;;;5042235;28;20048;-48
2022/08/01 09:04:10;;;;;;;13.05;2.75;;;21.00;99.90;;;;;;5040156;28;20041;-47
2022/08/01 09:06:36;;;;;;;12.30;2.40;;;20.90;99.90;;;;;;5021045;28;20131;-47
2022/08/01 09:09:03;;;;;;;11.40;2.53;;;20.90;99.90;;;;;;5037958;28;20477;-48
2022/08/01 09:11:28;;;;;;;14.63;2.90;;;21.10;99.90;;;;;;5038727;28;20045;-47
2022/08/01 09:14:11;;;;;;;8.00;2.03;;;21.20;99.90;;;;;;5037237;28;20134;-48
2022/08/01 09:16:40;;;;;;;9.35;2.40;;;20.90;99.90;;;;;;5034942;28;20592;-52
2022/08/01 09:19:15;;;;;;;11.57;2.42;;;21.10;99.90;;;;;;5043120;28;20076;-47
2022/08/01 09:21:59;;;;;;;12.27;2.70;;;20.90;99.90;;;;;;5035761;28;20049;-50
2022/08/01 09:24:27;;;;;;;12.80;3.72;;;21.10;99.90;;;;;;5030153;28;20528;-48
2022/08/01 09:26:53;;;;;;;;;;;21.10;99.90;;;;;;5037289;28;20091;-48
2022/08/01 09:29:27;;;;;;;12.55;2.38;;;21.60;99.90;;;;;;5039370;28;19962;-46
2022/08/01 09:31:53;;;;;;;8.75;2.45;;;21.50;99.90;;;;;;5040011;28;20488;-47
2022/08/01 09:34:38;;;;;;;7.13;2.30;;;21.80;99.90;;;;;;5033076;28;20090;-47
2022/08/01 09:37:05;;;;;;;11.52;2.38;;;21.70;99.90;;;;;;5049383;28;20139;-49
2022/08/01 09:39:37;;;;;;;8.65;2.25;;;21.80;99.90;;;;;;5039015;28;20555;-48
2022/08/01 09:42:24;;;;;;;10.02;2.70;;;21.80;99.90;;;;;;5043271;28;20090;-49
2022/08/01 09:44:50;;;;;;;10.48;2.50;;;21.50;99.90;;;;;;5045256;28;20523;-48
2022/08/01 09:47:18;;;;;;;8.68;2.10;;;21.40;99.90;;;;;;5042356;28;20503;-47
2022/08/01 09:49:44;;;;;;;8.82;2.15;;;21.20;99.90;;;;;;5046856;28;20033;-47
2022/08/01 09:52:14;;;;;;;11.18;2.30;;;21.40;99.90;;;;;;5034048;28;20700;-47
2022/08/01 09:54:42;;;;;;;10.02;2.20;;;21.60;99.90;;;;;;5042266;28;20041;-47
2022/08/01 09:57:18;;;;;;;9.98;2.78;;;21.40;99.90;;;;;;5046569;28;20115;-46
2022/08/01 09:59:46;;;;;;;12.60;2.97;;;21.50;99.90;;;;;;5040841;28;20121;-48
2022/08/01 10:02:15;;;;;;;9.65;2.15;;;21.50;99.90;;;;;;5036124;28;20045;-47
2022/08/01 10:04:49;;;;;;;9.75;2.50;;;21.40;99.90;;;;;;5047265;28;20036;-48
2022/08/01 10:07:15;;;;;;;8.75;2.00;;;21.20;99.90;;;;;;5033648;28;20053;-48
2022/08/01 10:09:42;;;;;;;8.85;1.80;;;21.50;99.90;;;;;;5034154;28;20310;-52
2022/08/01 10:12:09;;;;;;;6.17;1.97;;;21.10;99.90;;;;;;5035011;28;20440;-47
2022/08/01 10:14:37;;;;;;;12.90;2.38;;;21.20;99.90;;;;;;5037125;28;20721;-50
2022/08/01 10:17:06;;;;;;;9.30;2.17;;;21.30;99.90;;;;;;5031081;28;20489;-48
2022/08/01 10:19:32;;;;;;;9.93;2.55;;;21.30;99.90;;;;;;5034948;28;20373;-48
2022/08/01 10:21:58;;;;;;;7.75;2.08;;;21.50;99.90;;;;;;5006865;28;20053;-49
2022/08/01 10:24:26;;;;;;;4.68;1.52;;;21.40;99.90;;;;;;5038129;28;20040;-48
2022/08/01 10:26:55;;;;;;;9.68;2.42;;;21.60;99.90;;;;;;5034218;28;20066;-47
2022/08/01 10:29:22;;;;;;;7.95;1.80;;;21.70;99.90;;;;;;5038574;28;20042;-51
2022/08/01 10:31:48;;;;;;;7.82;2.00;;;21.60;99.90;;;;;;5039964;28;20049;-48
2022/08/01 10:34:17;;;;;;;7.63;2.00;;;21.60;99.90;;;;;;5002736;28;20033;-51
2022/08/01 10:36:44;;;;;;;8.48;2.30;;;21.80;99.90;;;;;;5015854;28;20056;-48
2022/08/01 10:39:13;;;;;;;6.40;1.92;;;21.80;99.90;;;;;;5018213;28;20052;-49
2022/08/01 10:41:40;;;;;;;6.20;1.80;;;21.70;99.90;;;;;;5034209;28;20144;-49
2022/08/01 10:44:09;;;;;;;8.23;2.00;;;22.10;99.90;;;;;;5033979;28;20038;-50
2022/08/01 10:46:38;;;;;;;9.52;2.03;;;22.40;99.90;;;;;;5030768;28;20342;-48
2022/08/01 10:49:10;;;;;;;7.60;2.03;;;22.30;99.90;;;;;;5033388;28;20362;-47
2022/08/01 10:51:38;;;;;;;7.47;1.67;;;22.40;99.90;;;;;;5032664;28;20092;-51
2022/08/01 10:54:06;;;;;;;6.97;2.03;;;22.50;99.90;;;;;;5039452;28;20451;-48
2022/08/01 10:56:46;;;;;;;8.48;1.67;;;22.40;99.90;;;;;;5037155;28;20044;-49
2022/08/01 10:59:29;;;;;;;8.68;1.92;;;22.50;99.90;;;;;;5039957;28;20041;-50
2022/08/01 11:02:04;;;;;;;8.45;2.00;;;22.20;99.90;;;;;;5035986;28;20404;-48
2022/08/01 11:04:33;;;;;;;10.07;2.45;;;22.40;99.90;;;;;;5034370;28;20140;-47
2022/08/01 11:07:07;;;;;;;4.97;1.50;;;22.30;99.90;;;;;;5035360;28;20146;-47
2022/08/01 11:09:44;;;;;;;6.78;1.95;;;22.10;99.90;;;;;;5039424;28;20072;-50
2022/08/01 11:12:16;;;;;;;6.97;2.03;;;21.90;99.90;;;;;;5033486;28;20042;-47
2022/08/01 11:15:00;;;;;;;7.13;2.22;;;22.40;99.90;;;;;;5032076;28;20052;-49
2022/08/01 11:17:47;;;;;;;10.23;2.10;;;22.60;99.90;;;;;;5053445;28;20210;-49
2022/08/01 11:20:13;;;;;;;;;;;23.10;99.90;;;;;;5038008;28;20037;-48
2022/08/01 11:23:00;;;;;;;6.63;2.17;;;23.50;99.90;;;;;;5052743;28;19921;-51
2022/08/01 11:25:48;;;;;;;7.38;1.60;;;23.60;99.90;;;;;;5039622;28;20239;-48
2022/08/01 11:28:13;;;;;;;3.55;1.40;;;23.70;99.90;;;;;;5034261;28;20613;-50
2022/08/01 11:30:46;;;;;;;4.10;1.52;;;23.90;99.90;;;;;;5034381;28;20140;-48
2022/08/01 11:33:13;;;;;;;5.85;1.90;;;23.60;99.90;;;;;;5025997;28;20037;-48
2022/08/01 11:36:10;;;;;;;5.55;1.85;;;23.50;99.90;;;;;;5037233;28;20045;-49
2022/08/01 11:38:37;;;;;;;4.85;1.65;;;23.50;99.90;;;;;;5037822;28;20045;-52
2022/08/01 11:41:33;;;;;;;4.15;1.58;;;23.10;99.90;;;;;;5042553;28;20049;-48
2022/08/01 11:44:07;;;;;;;6.85;1.73;;;23.40;99.90;;;;;;5042119;28;20507;-48
2022/08/01 11:47:01;;;;;;;7.10;1.77;;;23.90;99.90;;;;;;5044495;28;20047;-47
2022/08/01 11:49:36;;;;;;;7.15;1.88;;;24.30;99.90;;;;;;5042432;28;20052;-48
2022/08/01 11:52:08;;;;;;;10.38;1.98;;;24.30;99.90;;;;;;5042847;28;20381;-49
2022/08/01 11:54:40;;;;;;;5.18;1.50;;;23.70;99.90;;;;;;5040473;28;20584;-48
2022/08/01 11:57:14;;;;;;;5.68;1.50;;;23.50;99.90;;;;;;5037654;28;20094;-47
2022/08/01 11:59:49;;;;;;;5.68;1.70;;;23.40;99.90;;;;;;5038371;28;20038;-47
2022/08/01 12:02:24;;;;;;;5.13;1.48;;;23.20;99.90;;;;;;5036334;28;20148;-48
2022/08/01 12:05:04;;;;;;;7.97;1.52;;;22.90;99.90;;;;;;5023102;28;20049;-49
2022/08/01 12:07:31;;;;;;;5.47;1.38;;;22.90;99.90;;;;;;5036269;28;20041;-49
2022/08/01 12:10:08;;;;;;;4.22;1.30;;;23.30;99.90;;;;;;5016143;28;20472;-51
2022/08/01 12:12:35;;;;;;;4.40;1.37;;;23.40;99.90;;;;;;5044714;28;20053;-53
2022/08/01 12:15:05;;;;;;;5.45;1.48;;;23.60;99.90;;;;;;5039745;28;20107;-50
2022/08/01 12:17:35;;;;;;;4.18;1.25;;;23.80;99.90;;;;;;5046465;28;20072;-47
2022/08/01 12:20:04;;;;;;;6.35;1.30;;;24.10;99.90;;;;;;5028153;28;20457;-48
2022/08/01 12:22:29;;;;;;;5.07;1.13;;;24.20;99.90;;;;;;5041419;28;20037;-47
2022/08/01 12:24:55;;;;;;;3.63;1.33;;;24.10;99.90;;;;;;5042723;28;20040;-47
2022/08/01 12:27:26;;;;;;;4.35;1.27;;;23.70;98.40;;;;;;5041728;28;21630;-50
2022/08/01 12:29:52;;;;;;;6.57;1.67;;;23.80;99.60;;;;;;5046048;28;20083;-48
2022/08/01 12:32:22;;;;;;;5.95;1.50;;;23.70;99.40;;;;;;5040376;28;20068;-50
2022/08/01 12:34:48;;;;;;;5.10;1.30;;;23.80;99.90;;;;;;5033000;28;20057;-47
2022/08/01 12:37:14;;;;;;;4.60;1.10;;;23.80;99.80;;;;;;5035190;28;20045;-50
2022/08/01 12:39:40;;;;;;;3.50;1.30;;;23.80;99.60;;;;;;5025259;28;20444;-45
2022/08/01 12:42:07;;;;;;;6.00;1.40;;;24.00;99.90;;;;;;5042388;28;20041;-51
2022/08/01 12:44:34;;;;;;;5.40;1.42;;;24.20;99.90;;;;;;5038706;28;20285;-47
2022/08/01 12:47:01;;;;;;;4.00;1.37;;;24.30;99.90;;;;;;5038172;28;20116;-49
2022/08/01 12:49:27;;;;;;;4.60;1.38;;;24.40;99.90;;;;;;5032423;28;20152;-49
2022/08/01 12:51:54;;;;;;;4.25;1.38;;;24.10;99.20;;;;;;5035097;28;20120;-49
2022/08/01 12:54:20;;;;;;;4.25;1.42;;;23.50;98.90;;;;;;5034072;28;20499;-49